Time;durP1;ratioP1;P1;durP2;ratioP2;P2;SDS_P1;SDS_P2;PMS_P1;PMS_P2;Temp;Humidity;BMP_temperature;BMP_pressure;BME280_temperature;BME280_humidity;BME280_pressure;Samples;Min_cycle;Max_cycle;Signal;HPM_P1;HPM_P2
2020/12/15 00:00:00;;;;;;;43.43;20.93;;;3.60;99.90;;;;;;4982167;28;20061;-64
2020/12/15 00:02:29;;;;;;;47.50;22.43;;;3.60;99.90;;;;;;4981827;28;20054;-65
2020/12/15 00:04:56;;;;;;;38.47;20.07;;;3.60;99.90;;;;;;4983127;28;21301;-64
2020/12/15 00:07:23;;;;;;;38.67;19.50;;;3.50;99.90;;;;;;4982117;28;20569;-65
2020/12/15 00:09:51;;;;;;;40.03;20.00;;;3.50;99.90;;;;;;4983005;28;20050;-65
2020/12/15 00:12:18;;;;;;;39.67;19.67;;;3.50;99.90;;;;;;4981479;28;20050;-64
2020/12/15 00:14:45;;;;;;;40.30;21.20;;;3.60;99.90;;;;;;4984911;28;20047;-64
2020/12/15 00:17:12;;;;;;;38.37;20.43;;;3.60;99.90;;;;;;4982308;28;20054;-65
2020/12/15 00:19:39;;;;;;;38.27;20.47;;;3.50;99.90;;;;;;4982685;28;20502;-65
2020/12/15 00:22:07;;;;;;;38.90;20.43;;;3.50;99.90;;;;;;4982802;28;20050;-65
2020/12/15 00:24:36;;;;;;;39.93;20.23;;;3.50;99.90;;;;;;4980685;28;20089;-64
2020/12/15 00:27:03;;;;;;;37.20;21.20;;;3.50;99.90;;;;;;4981058;28;20066;-63
2020/12/15 00:29:30;;;;;;;42.53;21.80;;;3.60;99.90;;;;;;4977267;28;20081;-65
2020/12/15 00:31:57;;;;;;;37.53;20.67;;;3.50;99.90;;;;;;4976064;28;20137;-64
2020/12/15 00:34:24;;;;;;;36.37;19.77;;;3.40;99.90;;;;;;4980559;28;20053;-65
2020/12/15 00:36:51;;;;;;;40.87;20.60;;;3.40;99.90;;;;;;4978737;28;20054;-63
2020/12/15 00:39:18;;;;;;;39.77;20.40;;;3.40;99.90;;;;;;4982878;28;20057;-65
2020/12/15 00:41:48;;;;;;;39.20;21.23;;;3.40;99.90;;;;;;4980580;28;20808;-65
2020/12/15 00:44:16;;;;;;;45.63;21.43;;;3.50;99.90;;;;;;4981234;28;20443;-64
2020/12/15 00:46:43;;;;;;;42.57;21.47;;;3.50;99.90;;;;;;4979123;28;20054;-64
2020/12/15 00:49:09;;;;;;;40.60;20.50;;;3.40;99.90;;;;;;4980750;28;20050;-64
2020/12/15 00:51:36;;;;;;;41.20;21.50;;;3.30;99.90;;;;;;4977275;28;20058;-64
2020/12/15 00:54:03;;;;;;;43.90;21.43;;;3.30;99.90;;;;;;4976517;28;20058;-64
2020/12/15 00:56:30;;;;;;;39.07;20.53;;;3.30;99.90;;;;;;4977406;28;20495;-62
2020/12/15 00:58:57;;;;;;;39.27;21.93;;;3.20;99.90;;;;;;4975582;28;20523;-64
2020/12/15 01:01:24;;;;;;;43.23;20.07;;;3.20;99.90;;;;;;4977668;28;20140;-62
2020/12/15 01:03:52;;;;;;;47.03;23.63;;;3.10;99.90;;;;;;4976187;28;20050;-64
2020/12/15 01:06:19;;;;;;;44.80;22.13;;;3.10;99.90;;;;;;4977425;28;20065;-64
2020/12/15 01:08:46;;;;;;;47.33;21.93;;;3.20;99.90;;;;;;4977696;28;20054;-63
2020/12/15 01:11:12;;;;;;;47.73;23.33;;;3.10;99.90;;;;;;4977070;28;20065;-64
2020/12/15 01:13:39;;;;;;;46.17;23.20;;;3.00;99.90;;;;;;4977041;28;20499;-64
2020/12/15 01:16:06;;;;;;;49.60;23.17;;;3.00;99.90;;;;;;4976493;28;20140;-63
2020/12/15 01:18:35;;;;;;;49.47;23.17;;;3.00;99.90;;;;;;4976671;28;20050;-64
2020/12/15 01:21:02;;;;;;;45.27;21.87;;;3.00;99.90;;;;;;4975431;28;20112;-62
2020/12/15 01:23:30;;;;;;;46.00;20.90;;;2.90;99.90;;;;;;4977456;28;20056;-64
2020/12/15 01:25:57;;;;;;;41.70;22.00;;;2.90;99.90;;;;;;4976469;28;20507;-63
2020/12/15 01:28:24;;;;;;;44.77;22.93;;;3.00;99.90;;;;;;4976844;28;20046;-62
2020/12/15 01:30:50;;;;;;;42.50;20.77;;;2.90;99.90;;;;;;4976501;28;20049;-63
2020/12/15 01:33:17;;;;;;;42.93;19.97;;;2.90;99.90;;;;;;4976681;28;20527;-64
2020/12/15 01:35:46;;;;;;;39.63;20.53;;;3.10;99.90;;;;;;4979004;28;20065;-63
2020/12/15 01:38:13;;;;;;;43.03;22.30;;;3.00;99.90;;;;;;4980653;28;20045;-63
2020/12/15 01:40:47;;;;;;;44.63;22.73;;;3.00;99.90;;;;;;4980231;28;20423;-64
2020/12/15 01:43:13;;;;;;;49.47;23.93;;;2.90;99.90;;;;;;4980659;28;20048;-63
2020/12/15 01:45:40;;;;;;;42.47;20.50;;;2.80;99.90;;;;;;4981430;28;20468;-63
2020/12/15 01:48:07;;;;;;;45.20;22.37;;;2.80;99.90;;;;;;4981614;28;20060;-64
2020/12/15 01:50:34;;;;;;;42.73;20.27;;;2.70;99.90;;;;;;4979925;28;20050;-64
2020/12/15 01:53:23;;;;;;;48.90;23.67;;;2.70;99.90;;;;;;4981461;28;20050;-63
2020/12/15 01:55:50;;;;;;;45.97;22.67;;;2.90;99.90;;;;;;4980097;28;20050;-63
2020/12/15 01:58:17;;;;;;;44.93;22.20;;;2.80;99.90;;;;;;4974646;28;20053;-62
2020/12/15 02:00:43;;;;;;;44.67;21.80;;;2.80;99.90;;;;;;4970004;28;20066;-63
2020/12/15 02:03:10;;;;;;;48.83;22.33;;;2.70;99.90;;;;;;4971549;28;20054;-63
2020/12/15 02:05:37;;;;;;;46.40;22.93;;;2.60;99.90;;;;;;4971400;28;20061;-63
2020/12/15 02:08:05;;;;;;;53.17;24.07;;;2.60;99.90;;;;;;4972925;28;20058;-63
2020/12/15 02:10:32;;;;;;;48.17;22.10;;;2.50;99.90;;;;;;4971527;28;20058;-63
2020/12/15 02:12:59;;;;;;;43.60;22.00;;;2.50;99.90;;;;;;4977013;28;20057;-63
2020/12/15 02:15:26;;;;;;;51.07;24.03;;;2.50;99.90;;;;;;4977734;28;20042;-63
2020/12/15 02:17:52;;;;;;;46.47;22.47;;;2.50;99.90;;;;;;4975576;28;20133;-63
2020/12/15 02:20:19;;;;;;;47.03;23.03;;;2.50;99.90;;;;;;4975635;28;20489;-63
2020/12/15 02:22:47;;;;;;;48.50;22.87;;;2.50;99.90;;;;;;4975839;28;20050;-64
2020/12/15 02:25:14;;;;;;;41.20;21.00;;;2.50;99.90;;;;;;4976225;28;20043;-63
2020/12/15 02:27:42;;;;;;;46.30;22.20;;;2.50;99.90;;;;;;4975459;28;20475;-64
2020/12/15 02:30:09;;;;;;;46.37;22.03;;;2.50;99.90;;;;;;4976256;28;20442;-64
2020/12/15 02:32:36;;;;;;;46.17;22.33;;;2.50;99.90;;;;;;4975636;28;20057;-63
2020/12/15 02:35:03;;;;;;;43.87;21.53;;;2.50;99.90;;;;;;4975249;28;20066;-63
2020/12/15 02:37:30;;;;;;;46.50;22.83;;;2.50;99.90;;;;;;4976635;28;20050;-63
2020/12/15 02:40:03;;;;;;;43.90;21.77;;;2.50;99.90;;;;;;4976116;28;20050;-63
2020/12/15 02:42:30;;;;;;;46.93;21.53;;;2.50;99.90;;;;;;4976130;28;20042;-63
2020/12/15 02:44:57;;;;;;;44.40;21.53;;;2.60;99.90;;;;;;4974743;28;20054;-63
2020/12/15 02:47:24;;;;;;;43.17;20.73;;;2.60;99.90;;;;;;4976209;28;20050;-62
2020/12/15 02:49:51;;;;;;;43.00;20.67;;;2.60;99.90;;;;;;4975838;28;20060;-63
2020/12/15 02:52:19;;;;;;;44.07;21.53;;;2.70;99.90;;;;;;4975551;28;20066;-63
2020/12/15 02:54:46;;;;;;;42.77;21.40;;;2.70;99.90;;;;;;4975920;28;20396;-63
2020/12/15 02:57:14;;;;;;;45.20;20.33;;;2.70;99.90;;;;;;4975351;28;20049;-62
2020/12/15 02:59:41;;;;;;;45.70;21.67;;;2.70;99.90;;;;;;4975144;28;20054;-63
2020/12/15 03:02:07;;;;;;;43.10;20.37;;;2.80;99.90;;;;;;4974094;28;20042;-64
2020/12/15 03:04:34;;;;;;;50.00;22.70;;;2.70;99.90;;;;;;4975501;28;20054;-62
2020/12/15 03:07:01;;;;;;;43.07;22.03;;;2.70;99.90;;;;;;4974498;28;20054;-63
2020/12/15 03:09:28;;;;;;;46.93;21.03;;;2.70;99.90;;;;;;4975182;28;20053;-62
2020/12/15 03:11:57;;;;;;;45.67;21.27;;;2.60;99.90;;;;;;4974264;28;20066;-62
2020/12/15 03:14:24;;;;;;;42.63;21.60;;;2.60;99.90;;;;;;4975076;28;20058;-63
2020/12/15 03:16:51;;;;;;;49.70;21.23;;;2.60;99.90;;;;;;4975138;28;20054;-64
2020/12/15 03:19:18;;;;;;;52.67;21.37;;;2.60;99.90;;;;;;4974511;28;20092;-64
2020/12/15 03:21:45;;;;;;;42.43;20.10;;;2.60;99.90;;;;;;4974975;28;20050;-63
2020/12/15 03:24:12;;;;;;;44.47;20.80;;;2.70;99.90;;;;;;4973957;28;20046;-63
2020/12/15 03:26:38;;;;;;;49.50;21.87;;;2.70;99.90;;;;;;4974739;28;20053;-63
2020/12/15 03:29:05;;;;;;;45.07;21.43;;;2.70;99.90;;;;;;4974392;28;20064;-63
2020/12/15 03:31:33;;;;;;;45.03;21.03;;;2.60;99.90;;;;;;4974531;28;20057;-64
2020/12/15 03:33:59;;;;;;;45.60;22.47;;;2.70;99.90;;;;;;4975009;28;20073;-63
2020/12/15 03:36:26;;;;;;;49.57;22.27;;;2.70;99.90;;;;;;4970410;28;20070;-63
2020/12/15 03:38:53;;;;;;;43.17;20.43;;;2.70;99.90;;;;;;4964941;28;20438;-62
2020/12/15 03:41:19;;;;;;;43.60;20.70;;;2.70;99.90;;;;;;4964647;28;20055;-63
2020/12/15 03:43:46;;;;;;;46.43;21.67;;;2.80;99.90;;;;;;4964206;28;20074;-64
2020/12/15 03:46:13;;;;;;;41.87;21.60;;;2.80;99.90;;;;;;4962573;28;20057;-63
2020/12/15 03:48:40;;;;;;;41.43;21.10;;;2.90;99.90;;;;;;4965924;28;20054;-63
2020/12/15 03:51:10;;;;;;;46.13;22.10;;;2.80;99.90;;;;;;4968418;28;20574;-62
2020/12/15 03:53:37;;;;;;;50.60;22.57;;;2.90;99.90;;;;;;4969362;28;20415;-64
2020/12/15 03:56:03;;;;;;;47.50;20.37;;;2.80;99.90;;;;;;4974143;28;20396;-63
2020/12/15 03:58:30;;;;;;;48.47;21.47;;;2.80;99.90;;;;;;4970066;28;20499;-64
2020/12/15 04:00:57;;;;;;;39.90;19.60;;;2.80;99.90;;;;;;4968941;28;20642;-64
2020/12/15 04:03:24;;;;;;;47.17;20.33;;;2.80;99.90;;;;;;4972320;28;20058;-63
2020/12/15 04:05:52;;;;;;;37.33;19.57;;;2.90;99.90;;;;;;4978478;28;20065;-63
2020/12/15 04:08:19;;;;;;;41.03;20.40;;;2.90;99.90;;;;;;4979101;28;20057;-62
2020/12/15 04:10:45;;;;;;;39.60;19.80;;;2.90;99.90;;;;;;4977557;28;20058;-63
2020/12/15 04:13:12;;;;;;;44.13;20.80;;;2.80;99.90;;;;;;4978607;28;20054;-63
2020/12/15 04:15:39;;;;;;;38.53;18.27;;;2.80;99.90;;;;;;4977474;28;20178;-63
2020/12/15 04:18:05;;;;;;;37.97;18.60;;;2.80;99.90;;;;;;4978047;28;20061;-64
2020/12/15 04:20:35;;;;;;;38.53;17.80;;;2.80;99.90;;;;;;4978160;28;20061;-63
2020/12/15 04:23:03;;;;;;;37.57;19.03;;;2.90;99.90;;;;;;4977215;28;20089;-63
2020/12/15 04:25:30;;;;;;;41.87;17.87;;;2.90;99.90;;;;;;4977996;28;20050;-64
2020/12/15 04:27:57;;;;;;;38.43;17.50;;;3.00;99.90;;;;;;4977204;28;20423;-63
2020/12/15 04:30:23;;;;;;;41.53;15.97;;;3.00;99.90;;;;;;4977571;28;20058;-64
2020/12/15 04:32:50;;;;;;;40.37;17.07;;;3.00;99.90;;;;;;4977612;28;20046;-63
2020/12/15 04:35:17;;;;;;;33.90;16.63;;;3.10;99.90;;;;;;4977164;28;20053;-63
2020/12/15 04:37:43;;;;;;;36.63;17.47;;;3.20;99.90;;;;;;4977391;28;20065;-62
2020/12/15 04:40:11;;;;;;;36.37;17.33;;;3.20;99.90;;;;;;4976228;28;20219;-63
2020/12/15 04:42:38;;;;;;;40.03;16.97;;;3.10;99.90;;;;;;4977828;28;20065;-64
2020/12/15 04:45:05;;;;;;;41.60;16.70;;;3.10;99.90;;;;;;4977803;28;20046;-62
2020/12/15 04:47:35;;;;;;;36.80;16.87;;;3.10;99.90;;;;;;4976989;28;20166;-63
2020/12/15 04:50:04;;;;;;;37.87;17.10;;;3.20;99.90;;;;;;4978074;28;20117;-64
2020/12/15 04:52:45;;;;;;;39.73;18.77;;;3.20;99.90;;;;;;4975738;28;20108;-62
2020/12/15 04:55:13;;;;;;;37.30;17.40;;;3.10;99.90;;;;;;4977298;28;20058;-63
2020/12/15 04:57:40;;;;;;;40.73;18.77;;;3.20;99.90;;;;;;4977063;28;20411;-64
2020/12/15 05:00:08;;;;;;;39.50;17.37;;;3.10;99.90;;;;;;4977334;28;20105;-63
2020/12/15 05:02:40;;;;;;;37.83;17.73;;;3.00;99.90;;;;;;4976826;28;20065;-62
2020/12/15 05:05:07;;;;;;;40.70;17.57;;;3.10;99.90;;;;;;4977544;28;20058;-64
2020/12/15 05:07:39;;;;;;;40.20;17.67;;;3.10;99.90;;;;;;4977037;28;20058;-62
2020/12/15 05:10:06;;;;;;;46.93;18.37;;;3.10;99.90;;;;;;4976013;28;20054;-63
2020/12/15 05:12:33;;;;;;;43.73;19.33;;;3.20;99.90;;;;;;4976848;28;20057;-64
2020/12/15 05:15:01;;;;;;;42.23;17.33;;;3.20;99.90;;;;;;4975556;28;20046;-64
2020/12/15 05:17:32;;;;;;;36.17;17.10;;;3.20;99.90;;;;;;4976942;28;20054;-62
2020/12/15 05:19:59;;;;;;;41.97;17.27;;;3.10;99.90;;;;;;4976696;28;20058;-62
2020/12/15 05:22:25;;;;;;;43.60;17.47;;;3.40;99.90;;;;;;4975763;28;20093;-64
2020/12/15 05:24:52;;;;;;;40.30;16.20;;;3.40;99.90;;;;;;4976966;28;20054;-63
2020/12/15 05:27:29;;;;;;;40.43;17.67;;;3.20;99.90;;;;;;4976112;28;20068;-63
2020/12/15 05:30:09;;;;;;;35.83;16.73;;;3.20;99.90;;;;;;4978139;28;20093;-64
2020/12/15 05:32:37;;;;;;;39.77;16.77;;;3.20;99.90;;;;;;4975384;28;20054;-63
2020/12/15 05:35:08;;;;;;;42.60;17.53;;;3.30;99.90;;;;;;4976792;28;20053;-63
2020/12/15 05:37:35;;;;;;;39.00;17.50;;;3.30;99.90;;;;;;4976548;28;20058;-64
2020/12/15 05:40:02;;;;;;;36.30;15.73;;;3.60;99.90;;;;;;4975687;28;20059;-62
2020/12/15 05:42:30;;;;;;;34.83;16.57;;;3.50;99.90;;;;;;4976567;28;20054;-63
2020/12/15 05:44:57;;;;;;;38.00;17.17;;;3.40;99.90;;;;;;4976225;28;20062;-64
2020/12/15 05:47:25;;;;;;;35.87;16.40;;;3.30;99.90;;;;;;4976130;28;20054;-63
2020/12/15 05:49:53;;;;;;;33.70;16.03;;;3.60;99.90;;;;;;4976164;28;20054;-64
2020/12/15 05:52:25;;;;;;;40.20;18.97;;;3.50;99.90;;;;;;4975496;28;20092;-62
2020/12/15 05:55:03;;;;;;;40.07;16.83;;;3.70;99.90;;;;;;4976075;28;20077;-63
2020/12/15 05:57:31;;;;;;;43.33;18.13;;;3.70;99.90;;;;;;4975432;28;20057;-62
2020/12/15 06:00:07;;;;;;;39.03;17.70;;;3.90;99.90;;;;;;4977298;28;20491;-62
2020/12/15 06:02:35;;;;;;;38.43;17.37;;;4.00;99.90;;;;;;4975051;28;20152;-64
2020/12/15 06:05:01;;;;;;;38.73;18.83;;;4.00;99.90;;;;;;4976142;28;20050;-63
2020/12/15 06:07:28;;;;;;;40.13;19.43;;;4.00;99.90;;;;;;4975804;28;20133;-62
2020/12/15 06:09:58;;;;;;;39.57;17.17;;;4.10;99.90;;;;;;4975997;28;20089;-63
2020/12/15 06:12:24;;;;;;;41.57;18.70;;;4.20;99.90;;;;;;4974660;28;20061;-62
2020/12/15 06:14:51;;;;;;;39.53;17.97;;;4.20;99.90;;;;;;4974595;28;20050;-63
2020/12/15 06:17:20;;;;;;;35.50;16.13;;;4.20;99.90;;;;;;4975391;28;20051;-64
2020/12/15 06:19:52;;;;;;;40.47;18.40;;;4.20;99.90;;;;;;4974552;28;20074;-63
2020/12/15 06:22:21;;;;;;;38.23;17.77;;;4.20;99.90;;;;;;4975064;28;20530;-64
2020/12/15 06:24:58;;;;;;;34.43;16.73;;;4.20;99.90;;;;;;4975477;28;20062;-64
2020/12/15 06:27:32;;;;;;;37.13;16.60;;;4.20;99.90;;;;;;4975467;28;20052;-63
2020/12/15 06:30:00;;;;;;;40.50;17.37;;;4.20;99.90;;;;;;4975742;28;20061;-63
2020/12/15 06:32:27;;;;;;;40.70;17.03;;;4.20;99.90;;;;;;4974009;28;20050;-64
2020/12/15 06:34:55;;;;;;;37.70;17.47;;;4.20;99.90;;;;;;4975885;28;20088;-63
2020/12/15 06:37:23;;;;;;;38.93;16.93;;;4.10;99.90;;;;;;4975261;28;20526;-63
2020/12/15 06:39:55;;;;;;;39.97;18.40;;;4.10;99.90;;;;;;4975344;28;20050;-63
2020/12/15 06:42:22;;;;;;;41.20;18.77;;;4.00;99.90;;;;;;4975128;28;20073;-64
2020/12/15 06:44:59;;;;;;;39.90;17.67;;;3.90;99.90;;;;;;4975035;28;20101;-63
2020/12/15 06:47:26;;;;;;;45.50;19.50;;;4.10;99.90;;;;;;4975356;28;20062;-64
2020/12/15 06:49:54;;;;;;;45.83;19.63;;;4.00;99.90;;;;;;4977194;28;20051;-66
2020/12/15 06:52:28;;;;;;;47.07;19.90;;;4.00;99.90;;;;;;4978279;28;20047;-63
2020/12/15 06:54:58;;;;;;;46.10;19.10;;;4.00;99.90;;;;;;4975252;28;20062;-63
2020/12/15 06:57:32;;;;;;;49.73;20.63;;;4.00;99.90;;;;;;4977004;28;20065;-63
2020/12/15 07:00:00;;;;;;;52.23;19.30;;;4.00;99.90;;;;;;4978090;28;20062;-62
2020/12/15 07:02:31;;;;;;;45.03;19.20;;;4.00;99.90;;;;;;4974168;28;20097;-63
2020/12/15 07:05:24;;;;;;;51.17;19.50;;;4.00;99.90;;;;;;4975980;28;20050;-63
2020/12/15 07:07:52;;;;;;;47.60;19.93;;;4.00;99.90;;;;;;4976111;28;20443;-63
2020/12/15 07:10:19;;;;;;;52.07;20.17;;;3.90;99.90;;;;;;4981151;28;20104;-61
2020/12/15 07:12:47;;;;;;;44.03;18.47;;;3.90;99.90;;;;;;4974400;28;20105;-63
2020/12/15 07:15:15;;;;;;;38.67;17.63;;;3.90;99.90;;;;;;4975859;28;20098;-63
2020/12/15 07:17:46;;;;;;;41.30;17.93;;;3.90;99.90;;;;;;4977209;28;20642;-62
2020/12/15 07:20:14;;;;;;;41.03;17.77;;;4.00;99.90;;;;;;4976220;28;20426;-63
2020/12/15 07:22:41;;;;;;;40.03;17.20;;;3.90;99.90;;;;;;4976703;28;20046;-63
2020/12/15 07:25:09;;;;;;;42.90;18.40;;;3.90;99.90;;;;;;4974652;28;20403;-63
2020/12/15 07:27:37;;;;;;;40.03;17.87;;;4.00;99.90;;;;;;4975806;28;20054;-63
2020/12/15 07:30:07;;;;;;;43.33;17.33;;;4.00;99.90;;;;;;4974698;28;20055;-63
2020/12/15 07:32:36;;;;;;;44.23;19.07;;;4.20;99.90;;;;;;4974428;28;20046;-63
2020/12/15 07:35:05;;;;;;;39.70;17.53;;;4.20;99.90;;;;;;4976411;28;20133;-63
2020/12/15 07:37:35;;;;;;;43.80;18.27;;;4.30;99.90;;;;;;4976523;28;20058;-62
2020/12/15 07:40:05;;;;;;;38.80;18.53;;;4.30;99.90;;;;;;4981523;28;20073;-63
2020/12/15 07:42:32;;;;;;;40.30;18.27;;;4.30;99.90;;;;;;4980673;28;20090;-63
2020/12/15 07:45:01;;;;;;;42.43;19.37;;;4.20;99.90;;;;;;4980846;28;20058;-63
2020/12/15 07:47:28;;;;;;;42.37;19.30;;;4.20;99.90;;;;;;4978085;28;20054;-63
2020/12/15 07:49:56;;;;;;;46.13;20.10;;;4.10;99.90;;;;;;4979819;28;20547;-63
2020/12/15 07:52:30;;;;;;;45.23;19.47;;;4.10;99.90;;;;;;4980025;28;20133;-63
2020/12/15 07:55:11;;;;;;;42.30;20.60;;;4.20;99.90;;;;;;4978695;28;20058;-63
2020/12/15 07:57:39;;;;;;;45.60;20.67;;;4.20;99.90;;;;;;4979425;28;20053;-63
2020/12/15 08:00:19;;;;;;;45.80;19.77;;;4.20;99.90;;;;;;4978286;28;20058;-61
2020/12/15 08:06:07;;;;;;;49.27;19.83;;;4.30;99.90;;;;;;4971144;28;20066;-63
2020/12/15 08:08:35;;;;;;;41.50;18.92;;;4.30;99.90;;;;;;4979110;28;20062;-63
2020/12/15 08:11:02;;;;;;;44.20;19.60;;;4.30;99.90;;;;;;4977833;28;20054;-63
2020/12/15 08:13:29;;;;;;;43.97;20.80;;;4.40;99.90;;;;;;4979569;28;20164;-62
2020/12/15 08:15:56;;;;;;;47.53;20.47;;;4.50;99.90;;;;;;4978710;28;20055;-63
2020/12/15 08:18:23;;;;;;;45.27;18.80;;;4.70;99.90;;;;;;4978147;28;20054;-63
2020/12/15 08:21:00;;;;;;;43.07;19.10;;;4.70;99.90;;;;;;4978623;28;20054;-63
2020/12/15 08:23:27;;;;;;;41.00;18.43;;;4.70;99.90;;;;;;4974696;28;20058;-62
2020/12/15 08:25:57;;;;;;;42.30;19.20;;;4.80;99.90;;;;;;4975603;28;20226;-63
2020/12/15 08:28:26;;;;;;;37.30;17.83;;;4.90;99.90;;;;;;4974466;28;20054;-63
2020/12/15 08:30:54;;;;;;;44.17;19.50;;;5.10;99.90;;;;;;4974909;28;21300;-62
2020/12/15 08:33:22;;;;;;;40.20;17.97;;;5.00;99.90;;;;;;4975400;28;20069;-63
2020/12/15 08:35:49;;;;;;;36.23;17.47;;;4.90;99.90;;;;;;4983161;28;20507;-62
2020/12/15 08:38:16;;;;;;;36.27;17.40;;;4.90;99.90;;;;;;4991074;28;20050;-61
2020/12/15 08:40:45;;;;;;;43.23;19.50;;;5.00;99.90;;;;;;4990622;28;20675;-63
2020/12/15 08:43:15;;;;;;;37.67;17.43;;;5.00;99.90;;;;;;4990446;28;20141;-63
2020/12/15 08:45:43;;;;;;;38.30;18.10;;;5.00;99.90;;;;;;4986323;28;20112;-63
2020/12/15 08:48:17;;;;;;;37.73;17.97;;;5.10;99.90;;;;;;4992390;28;20107;-62
2020/12/15 08:50:45;;;;;;;38.80;19.20;;;5.10;99.90;;;;;;4981390;28;20100;-63
2020/12/15 08:53:12;;;;;;;40.63;17.40;;;5.20;99.90;;;;;;4978776;28;20050;-64
2020/12/15 08:55:40;;;;;;;35.63;16.90;;;5.20;99.90;;;;;;4980449;28;20907;-64
2020/12/15 08:58:08;;;;;;;40.03;18.07;;;5.20;99.90;;;;;;4978734;28;20054;-63
2020/12/15 09:00:36;;;;;;;31.27;16.00;;;5.20;99.90;;;;;;4979898;28;20061;-63
2020/12/15 09:03:11;;;;;;;33.90;16.53;;;5.30;99.90;;;;;;4979105;28;20065;-62
2020/12/15 09:05:52;;;;;;;34.27;16.60;;;5.40;99.90;;;;;;4978247;28;20060;-62
2020/12/15 09:08:20;;;;;;;35.53;16.60;;;5.50;99.90;;;;;;4978113;28;20062;-63
2020/12/15 09:10:47;;;;;;;35.13;16.47;;;5.40;99.90;;;;;;4978259;28;20054;-63
2020/12/15 09:13:14;;;;;;;32.30;16.30;;;5.60;99.90;;;;;;4979806;28;20069;-68
2020/12/15 09:15:49;;;;;;;34.47;16.60;;;5.40;99.90;;;;;;4980047;28;20415;-62
2020/12/15 09:18:17;;;;;;;27.87;14.00;;;5.40;99.90;;;;;;4983694;28;20058;-63
2020/12/15 09:20:46;;;;;;;33.67;14.50;;;5.40;99.90;;;;;;4981376;28;20054;-62
2020/12/15 09:23:14;;;;;;;34.50;16.20;;;5.50;99.90;;;;;;4980333;28;20065;-63
2020/12/15 09:25:40;;;;;;;32.27;14.83;;;5.50;99.90;;;;;;4979403;28;20086;-62
2020/12/15 09:28:07;;;;;;;28.80;14.63;;;5.60;99.90;;;;;;4977570;28;20054;-64
2020/12/15 09:30:34;;;;;;;29.63;14.30;;;5.60;99.90;;;;;;4981123;28;20066;-63
2020/12/15 09:33:08;;;;;;;31.33;13.90;;;5.70;99.90;;;;;;4978666;28;20050;-63
2020/12/15 09:35:36;;;;;;;32.17;15.13;;;5.80;99.90;;;;;;4978137;28;20055;-62
2020/12/15 09:38:03;;;;;;;34.80;16.33;;;5.70;99.90;;;;;;4978302;28;20558;-63
2020/12/15 09:40:29;;;;;;;31.90;14.90;;;5.80;99.90;;;;;;4978100;28;20446;-63
2020/12/15 09:42:58;;;;;;;30.27;14.73;;;5.80;99.90;;;;;;4980209;28;20069;-62
2020/12/15 09:45:25;;;;;;;33.75;16.27;;;5.80;99.90;;;;;;4977293;28;20065;-63
2020/12/15 09:47:51;;;;;;;30.80;16.33;;;5.90;99.90;;;;;;4977193;28;20054;-63
2020/12/15 09:50:18;;;;;;;31.33;15.07;;;5.90;99.90;;;;;;4978264;28;20077;-64
2020/12/15 09:52:46;;;;;;;32.77;15.50;;;6.00;99.90;;;;;;4979028;28;20070;-63
2020/12/15 09:55:12;;;;;;;29.23;14.80;;;6.00;99.90;;;;;;4979272;28;20526;-63
2020/12/15 09:57:39;;;;;;;33.13;16.10;;;6.10;99.90;;;;;;4979650;28;20054;-63
2020/12/15 10:00:06;;;;;;;29.57;14.77;;;6.00;99.90;;;;;;4979117;28;20070;-62
2020/12/15 10:02:33;;;;;;;32.40;16.00;;;5.90;99.90;;;;;;4981753;28;20426;-63
2020/12/15 10:04:59;;;;;;;33.70;16.37;;;6.00;99.90;;;;;;4980250;28;20058;-63
2020/12/15 10:07:26;;;;;;;32.90;15.43;;;6.00;99.90;;;;;;4979252;28;20438;-63
2020/12/15 10:09:57;;;;;;;30.07;15.43;;;6.00;99.90;;;;;;4978919;28;20053;-63
2020/12/15 10:12:24;;;;;;;30.10;14.77;;;6.10;99.90;;;;;;4980562;28;20055;-63
2020/12/15 10:14:51;;;;;;;27.88;14.15;;;7.30;99.90;;;;;;4980798;28;20050;-63
2020/12/15 10:17:18;;;;;;;30.33;15.30;;;8.80;99.90;;;;;;4980157;28;20054;-63
2020/12/15 10:19:45;;;;;;;25.13;12.73;;;9.40;99.90;;;;;;4979771;28;20057;-64
2020/12/15 10:22:18;;;;;;;29.20;15.25;;;8.90;99.90;;;;;;4977331;28;20306;-63
2020/12/15 10:24:44;;;;;;;28.30;14.88;;;8.90;99.90;;;;;;4979163;28;20105;-64
2020/12/15 10:27:12;;;;;;;27.73;14.35;;;8.70;99.90;;;;;;4979887;28;20105;-64
2020/12/15 10:29:39;;;;;;;27.55;15.30;;;8.30;99.90;;;;;;4980264;28;20054;-64
2020/12/15 10:32:06;;;;;;;25.60;14.77;;;8.10;99.90;;;;;;4978495;28;20054;-64
2020/12/15 10:34:33;;;;;;;26.38;14.05;;;7.60;99.90;;;;;;4978409;28;20050;-63
2020/12/15 10:37:00;;;;;;;28.10;13.85;;;7.40;99.90;;;;;;4979911;28;20057;-63
2020/12/15 10:39:27;;;;;;;30.70;14.45;;;7.30;99.90;;;;;;4978195;28;20051;-63
2020/12/15 10:41:54;;;;;;;32.75;14.52;;;7.30;99.90;;;;;;4981436;28;20054;-63
2020/12/15 10:44:22;;;;;;;26.77;14.07;;;7.30;99.90;;;;;;4978434;28;20054;-63
2020/12/15 10:46:50;;;;;;;32.70;14.88;;;7.40;99.90;;;;;;4980083;28;20054;-64
2020/12/15 10:49:17;;;;;;;27.88;13.80;;;7.50;99.90;;;;;;4971053;28;20042;-63
2020/12/15 10:51:49;;;;;;;28.17;13.63;;;7.40;99.90;;;;;;4978660;28;20054;-62
2020/12/15 10:54:16;;;;;;;23.88;13.18;;;7.50;99.90;;;;;;4979406;28;20046;-63
2020/12/15 10:56:43;;;;;;;23.65;12.38;;;7.70;99.90;;;;;;4978401;28;20058;-62
2020/12/15 10:59:10;;;;;;;23.70;13.20;;;7.50;99.90;;;;;;4978529;28;20054;-62
2020/12/15 11:01:38;;;;;;;24.92;12.55;;;7.50;99.90;;;;;;4976953;28;20112;-62
2020/12/15 11:04:05;;;;;;;25.45;13.43;;;7.40;99.90;;;;;;4978669;28;20062;-63
2020/12/15 11:06:35;;;;;;;23.17;12.73;;;7.40;99.90;;;;;;4976656;28;20054;-63
2020/12/15 11:09:02;;;;;;;25.42;13.45;;;7.30;99.90;;;;;;4975950;28;20412;-63
2020/12/15 11:11:29;;;;;;;26.98;13.20;;;7.30;99.90;;;;;;4975610;28;20058;-63
2020/12/15 11:13:56;;;;;;;25.17;12.98;;;7.40;99.90;;;;;;4977696;28;20117;-63
2020/12/15 11:16:22;;;;;;;24.45;11.95;;;7.50;99.90;;;;;;4979832;28;20050;-64
2020/12/15 11:18:50;;;;;;;25.08;12.43;;;7.40;99.90;;;;;;4979980;28;20046;-62
2020/12/15 11:21:17;;;;;;;22.20;12.50;;;7.40;99.90;;;;;;4983896;28;20054;-64
2020/12/15 11:23:44;;;;;;;22.38;11.82;;;7.30;99.90;;;;;;4987381;28;20502;-63
2020/12/15 11:26:13;;;;;;;26.38;13.32;;;7.20;99.90;;;;;;4986711;28;20069;-63
2020/12/15 11:28:40;;;;;;;26.30;11.88;;;7.10;99.90;;;;;;4987341;28;20076;-63
2020/12/15 11:31:07;;;;;;;22.48;12.52;;;7.20;99.90;;;;;;4985188;28;20056;-62
2020/12/15 11:33:34;;;;;;;22.30;11.60;;;7.20;99.90;;;;;;4987931;28;20042;-64
2020/12/15 11:36:02;;;;;;;23.77;12.98;;;7.10;99.90;;;;;;4987679;28;20065;-64
2020/12/15 11:38:29;;;;;;;20.88;11.35;;;7.10;99.90;;;;;;4987508;28;20077;-64
2020/12/15 11:40:55;;;;;;;24.45;12.23;;;7.00;99.90;;;;;;4987402;28;20054;-64
2020/12/15 11:43:22;;;;;;;22.70;12.38;;;6.90;99.90;;;;;;4986984;28;20050;-64
2020/12/15 11:45:49;;;;;;;25.27;12.85;;;6.90;99.90;;;;;;4986882;28;20054;-64
2020/12/15 11:48:16;;;;;;;24.60;11.15;;;7.00;99.90;;;;;;4986580;28;20058;-62
2020/12/15 11:50:43;;;;;;;22.58;12.18;;;7.10;99.90;;;;;;4986517;28;20061;-64
2020/12/15 11:53:10;;;;;;;24.58;11.60;;;7.20;99.90;;;;;;4985921;28;20145;-63
2020/12/15 11:55:37;;;;;;;22.27;11.73;;;7.20;99.90;;;;;;4988230;28;20054;-64
2020/12/15 11:58:04;;;;;;;27.35;12.52;;;7.30;99.90;;;;;;4992906;28;20130;-64
2020/12/15 12:00:31;;;;;;;21.52;11.50;;;7.20;99.90;;;;;;4991817;28;20093;-64
2020/12/15 12:02:57;;;;;;;22.63;11.60;;;7.40;99.90;;;;;;4992291;28;20157;-64
2020/12/15 12:05:24;;;;;;;20.48;10.90;;;7.40;99.90;;;;;;4992225;28;20050;-64
2020/12/15 12:07:51;;;;;;;22.45;12.10;;;7.60;99.90;;;;;;4993223;28;20057;-64
2020/12/15 12:10:18;;;;;;;21.90;11.20;;;7.50;99.90;;;;;;4991273;28;20081;-64
2020/12/15 12:12:45;;;;;;;19.45;11.30;;;7.60;99.90;;;;;;4987973;28;20499;-64
2020/12/15 12:15:12;;;;;;;22.75;11.65;;;7.50;99.90;;;;;;4988765;28;20055;-64
2020/12/15 12:17:38;;;;;;;21.48;12.18;;;7.60;99.90;;;;;;4991735;28;20100;-64
2020/12/15 12:20:05;;;;;;;20.85;11.45;;;7.60;99.90;;;;;;4993101;28;20058;-64
2020/12/15 12:22:32;;;;;;;22.80;11.45;;;7.60;99.90;;;;;;4988602;28;20047;-64
2020/12/15 12:24:59;;;;;;;20.80;11.23;;;7.60;99.90;;;;;;4982029;28;20058;-63
2020/12/15 12:27:26;;;;;;;20.92;11.13;;;7.60;99.90;;;;;;4991734;28;20049;-64
2020/12/15 12:29:53;;;;;;;20.85;10.88;;;7.70;99.90;;;;;;4991205;28;20055;-64
2020/12/15 12:32:20;;;;;;;19.67;11.80;;;7.60;99.90;;;;;;4991198;28;20058;-64
2020/12/15 12:34:49;;;;;;;18.17;10.25;;;7.60;99.90;;;;;;4991194;28;20047;-64
2020/12/15 12:37:16;;;;;;;19.50;10.77;;;7.90;99.90;;;;;;4985910;28;20057;-64
2020/12/15 12:39:43;;;;;;;21.13;10.95;;;8.20;99.90;;;;;;4979483;28;20576;-64
2020/12/15 12:42:10;;;;;;;20.40;10.50;;;8.60;99.90;;;;;;4984911;28;20743;-64